createdAt,value
2018-06-27T00:00:18.741Z,96180.00
2018-06-27T00:00:50.771Z,96184.00
2018-06-27T00:01:22.792Z,96182.00
2018-06-27T00:01:54.799Z,96179.00
2018-06-27T00:02:26.814Z,96175.00
2018-06-27T00:02:58.818Z,96176.00
2018-06-27T00:03:30.828Z,96175.00
2018-06-27T00:04:02.880Z,96173.00
2018-06-27T00:04:34.858Z,96174.00
2018-06-27T00:05:06.876Z,96174.00
2018-06-27T00:05:38.898Z,96173.00
2018-06-27T00:06:10.963Z,96173.00
2018-06-27T00:06:42.951Z,96170.00
2018-06-27T00:07:14.986Z,96173.00
2018-06-27T00:07:46.993Z,96173.00
2018-06-27T00:08:18.994Z,96170.00
2018-06-27T00:08:51.006Z,96172.00
2018-06-27T00:09:23.016Z,96173.00
2018-06-27T00:09:55.031Z,96173.00
2018-06-27T00:10:27.044Z,96173.00
2018-06-27T00:10:59.070Z,96175.00
2018-06-27T00:11:31.083Z,96171.00
2018-06-27T00:12:03.122Z,96173.00
2018-06-27T00:12:35.112Z,96167.00
2018-06-27T00:13:07.138Z,96173.00
2018-06-27T00:13:39.158Z,96168.00
2018-06-27T00:14:11.206Z,96173.00
2018-06-27T00:14:43.222Z,96170.00
2018-06-27T00:15:15.307Z,96171.00
2018-06-27T00:15:47.331Z,96173.00
2018-06-27T00:16:19.354Z,96172.00
2018-06-27T00:16:51.453Z,96169.00
2018-06-27T00:17:23.461Z,96169.00
2018-06-27T00:17:55.475Z,96169.00
2018-06-27T00:18:27.497Z,96169.00
2018-06-27T00:18:59.513Z,96166.00
2018-06-27T00:19:31.546Z,96170.00
2018-06-27T00:20:03.558Z,96171.00
2018-06-27T00:20:35.571Z,96172.00
2018-06-27T00:21:07.579Z,96164.00
2018-06-27T00:21:39.596Z,96165.00
2018-06-27T00:22:11.607Z,96164.00
2018-06-27T00:22:43.653Z,96163.00
2018-06-27T00:23:15.674Z,96163.00
2018-06-27T00:23:47.699Z,96163.00
2018-06-27T00:24:19.698Z,96163.00
2018-06-27T00:24:51.746Z,96162.00
2018-06-27T00:25:23.758Z,96164.00
2018-06-27T00:25:55.764Z,96162.00
2018-06-27T00:26:27.777Z,96163.00
2018-06-27T00:26:59.822Z,96162.00
2018-06-27T00:27:31.824Z,96161.00
2018-06-27T00:28:03.843Z,96161.00
2018-06-27T00:28:35.854Z,96159.00
2018-06-27T00:29:07.884Z,96163.00
2018-06-27T00:29:39.896Z,96156.00
2018-06-27T00:30:11.916Z,96156.00
2018-06-27T00:30:43.929Z,96158.00
2018-06-27T00:31:15.976Z,96159.00
2018-06-27T00:31:47.963Z,96158.00
2018-06-27T00:32:19.982Z,96158.00
2018-06-27T00:32:52.001Z,96161.00
2018-06-27T00:33:24.056Z,96155.00
2018-06-27T00:33:56.091Z,96156.00
2018-06-27T00:34:28.088Z,96158.00
2018-06-27T00:35:00.098Z,96163.00
2018-06-27T00:35:32.108Z,96159.00
2018-06-27T00:36:04.127Z,96161.00
2018-06-27T00:36:36.134Z,96155.00
2018-06-27T00:37:08.163Z,96158.00
2018-06-27T00:37:40.176Z,96158.00
2018-06-27T00:38:12.178Z,96153.00
2018-06-27T00:38:44.188Z,96159.00
2018-06-27T00:39:16.216Z,96155.00
2018-06-27T00:39:48.219Z,96160.00
2018-06-27T00:40:20.252Z,96156.00
2018-06-27T00:40:52.265Z,96158.00
2018-06-27T00:41:24.303Z,96157.00
2018-06-27T00:41:56.297Z,96157.00
2018-06-27T00:42:28.321Z,96157.00
2018-06-27T00:43:00.332Z,96159.00
2018-06-27T00:43:32.382Z,96156.00
2018-06-27T00:44:04.393Z,96157.00
2018-06-27T00:44:36.408Z,96155.00
2018-06-27T00:45:08.418Z,96157.00
2018-06-27T00:45:40.434Z,96151.00
2018-06-27T00:46:12.473Z,96151.00
2018-06-27T00:46:44.487Z,96153.00
2018-06-27T00:47:16.495Z,96149.00
2018-06-27T00:47:48.523Z,96149.00
2018-06-27T00:48:20.537Z,96154.00
2018-06-27T00:48:52.556Z,96155.00
2018-06-27T00:49:24.963Z,96159.00
2018-06-27T00:49:56.852Z,96153.00
2018-06-27T00:50:28.866Z,96153.00
2018-06-27T00:51:00.900Z,96155.00
2018-06-27T00:51:32.924Z,96154.00
2018-06-27T00:52:04.937Z,96156.00
2018-06-27T00:52:36.970Z,96160.00
2018-06-27T00:53:08.998Z,96152.00
2018-06-27T00:53:41.062Z,96152.00
2018-06-27T00:54:13.086Z,96155.00
2018-06-27T00:54:45.093Z,96157.00
2018-06-27T00:55:17.097Z,96156.00
2018-06-27T00:55:49.102Z,96158.00
2018-06-27T00:56:21.121Z,96154.00
2018-06-27T00:56:53.141Z,96154.00
2018-06-27T00:57:25.188Z,96156.00
2018-06-27T00:57:57.195Z,96151.00
2018-06-27T00:58:29.226Z,96157.00
2018-06-27T00:59:01.262Z,96157.00
2018-06-27T00:59:33.305Z,96155.00
2018-06-27T01:00:05.310Z,96154.00
2018-06-27T01:00:37.328Z,96154.00
2018-06-27T01:01:09.333Z,96153.00
2018-06-27T01:01:41.378Z,96152.00
2018-06-27T01:02:13.393Z,96156.00
2018-06-27T01:02:45.427Z,96154.00
2018-06-27T01:03:17.465Z,96154.00
2018-06-27T01:03:49.524Z,96155.00
2018-06-27T01:04:21.542Z,96149.00
2018-06-27T01:04:53.549Z,96147.00
2018-06-27T01:05:25.572Z,96148.00
2018-06-27T01:05:57.614Z,96152.00
2018-06-27T01:06:29.626Z,96150.00
2018-06-27T01:07:01.657Z,96151.00
2018-06-27T01:07:33.659Z,96151.00
2018-06-27T01:08:05.690Z,96153.00
2018-06-27T01:08:37.751Z,96153.00
2018-06-27T01:09:09.754Z,96151.00
2018-06-27T01:09:41.766Z,96152.00
2018-06-27T01:10:13.803Z,96155.00
2018-06-27T01:10:45.805Z,96154.00
2018-06-27T01:11:17.854Z,96151.00
2018-06-27T01:11:49.856Z,96152.00
2018-06-27T01:12:21.909Z,96149.00
2018-06-27T01:12:53.915Z,96142.00
2018-06-27T01:13:25.950Z,96146.00
2018-06-27T01:13:57.971Z,96143.00
2018-06-27T01:14:29.997Z,96144.00
2018-06-27T01:15:02.029Z,96145.00
2018-06-27T01:15:34.063Z,96146.00
2018-06-27T01:16:06.084Z,96147.00
2018-06-27T01:16:38.113Z,96146.00
2018-06-27T01:17:10.119Z,96148.00
2018-06-27T01:17:42.158Z,96148.00
2018-06-27T01:18:14.267Z,96143.00
2018-06-27T01:18:46.272Z,96144.00
2018-06-27T01:19:18.283Z,96144.00
2018-06-27T01:19:50.287Z,96144.00
2018-06-27T01:20:22.309Z,96148.00
2018-06-27T01:20:54.341Z,96144.00
2018-06-27T01:21:26.368Z,96146.00
2018-06-27T01:21:58.378Z,96147.00
2018-06-27T01:22:30.399Z,96146.00
2018-06-27T01:23:02.420Z,96141.00
2018-06-27T01:23:34.425Z,96142.00
2018-06-27T01:24:06.475Z,96143.00
2018-06-27T01:24:38.484Z,96145.00
2018-06-27T01:25:10.504Z,96142.00
2018-06-27T01:25:42.520Z,96144.00
2018-06-27T01:26:14.547Z,96143.00
2018-06-27T01:26:46.543Z,96144.00
2018-06-27T01:27:18.566Z,96142.00
2018-06-27T01:27:50.579Z,96138.00
2018-06-27T01:28:22.606Z,96137.00
2018-06-27T01:28:54.621Z,96139.00
2018-06-27T01:29:26.632Z,96136.00
2018-06-27T01:29:58.650Z,96137.00
2018-06-27T01:30:30.673Z,96138.00
2018-06-27T01:31:02.678Z,96138.00
2018-06-27T01:31:34.690Z,96142.00
2018-06-27T01:32:06.715Z,96140.00
2018-06-27T01:32:38.735Z,96140.00
2018-06-27T01:33:10.763Z,96136.00
2018-06-27T01:33:42.773Z,96139.00
2018-06-27T01:34:14.809Z,96140.00
2018-06-27T01:34:46.917Z,96141.00
2018-06-27T01:35:18.899Z,96137.00
2018-06-27T01:35:50.927Z,96139.00
2018-06-27T01:36:22.930Z,96136.00
2018-06-27T01:36:54.940Z,96133.00
2018-06-27T01:37:26.983Z,96139.00
2018-06-27T01:37:58.984Z,96136.00
2018-06-27T01:38:30.999Z,96137.00
2018-06-27T01:39:03.011Z,96136.00
2018-06-27T01:39:35.058Z,96138.00
2018-06-27T01:40:07.073Z,96137.00
2018-06-27T01:40:39.094Z,96140.00
2018-06-27T01:41:11.112Z,96141.00
2018-06-27T01:41:43.125Z,96140.00
2018-06-27T01:42:15.135Z,96144.00
2018-06-27T01:42:47.183Z,96142.00
2018-06-27T01:43:19.188Z,96141.00
2018-06-27T01:43:51.209Z,96138.00
2018-06-27T01:44:23.232Z,96141.00
2018-06-27T01:44:55.242Z,96141.00
2018-06-27T01:45:27.267Z,96141.00
2018-06-27T01:45:59.286Z,96141.00
2018-06-27T01:46:31.293Z,96140.00
2018-06-27T01:47:03.303Z,96144.00
2018-06-27T01:47:35.318Z,96143.00
2018-06-27T01:48:07.334Z,96140.00
2018-06-27T01:48:39.343Z,96138.00
2018-06-27T01:49:11.345Z,96141.00
2018-06-27T01:49:43.383Z,96137.00
2018-06-27T01:50:15.418Z,96142.00
2018-06-27T01:50:47.425Z,96140.00
2018-06-27T01:51:19.444Z,96141.00
2018-06-27T01:51:51.487Z,96140.00
2018-06-27T01:52:23.571Z,96146.00
2018-06-27T01:52:55.582Z,96141.00
2018-06-27T01:53:27.608Z,96139.00
2018-06-27T01:53:59.630Z,96138.00
2018-06-27T01:54:31.667Z,96142.00
2018-06-27T01:55:03.679Z,96144.00
2018-06-27T01:55:35.694Z,96139.00
2018-06-27T01:56:07.737Z,96141.00
2018-06-27T01:56:39.756Z,96140.00
2018-06-27T01:57:11.763Z,96141.00
2018-06-27T01:57:43.783Z,96140.00
2018-06-27T01:58:15.822Z,96135.00
2018-06-27T01:58:47.827Z,96136.00
2018-06-27T01:59:19.842Z,96144.00
2018-06-27T01:59:51.860Z,96145.00
2018-06-27T02:00:23.874Z,96143.00
2018-06-27T02:00:55.886Z,96141.00
2018-06-27T02:01:27.922Z,96142.00
2018-06-27T02:01:59.937Z,96141.00
2018-06-27T02:02:31.967Z,96141.00
2018-06-27T02:03:03.980Z,96146.00
2018-06-27T02:03:36.023Z,96143.00
2018-06-27T02:04:08.028Z,96144.00
2018-06-27T02:04:40.046Z,96149.00
2018-06-27T02:05:12.058Z,96143.00
2018-06-27T02:05:44.095Z,96142.00
2018-06-27T02:06:16.106Z,96144.00
2018-06-27T02:06:48.120Z,96143.00
2018-06-27T02:07:20.135Z,96142.00
2018-06-27T02:07:52.138Z,96140.00
2018-06-27T02:08:24.159Z,96145.00
2018-06-27T02:08:56.178Z,96142.00
2018-06-27T02:09:28.175Z,96150.00
2018-06-27T02:10:00.203Z,96147.00
2018-06-27T02:10:32.240Z,96147.00
2018-06-27T02:11:04.248Z,96148.00
2018-06-27T02:11:36.273Z,96143.00
2018-06-27T02:12:08.338Z,96145.00
2018-06-27T02:12:40.370Z,96144.00
2018-06-27T02:13:12.380Z,96142.00
2018-06-27T02:13:44.403Z,96142.00
2018-06-27T02:14:16.402Z,96139.00
2018-06-27T02:14:48.439Z,96143.00
2018-06-27T02:15:20.541Z,96137.00
2018-06-27T02:15:52.558Z,96137.00
2018-06-27T02:16:24.603Z,96135.00
2018-06-27T02:16:56.596Z,96136.00
2018-06-27T02:17:28.617Z,96138.00
2018-06-27T02:18:00.637Z,96138.00
2018-06-27T02:18:32.656Z,96133.00
2018-06-27T02:19:04.690Z,96140.00
2018-06-27T02:19:36.735Z,96136.00
2018-06-27T02:20:08.767Z,96136.00
2018-06-27T02:20:40.780Z,96136.00
2018-06-27T02:21:12.796Z,96137.00
2018-06-27T02:21:44.811Z,96135.00
2018-06-27T02:22:16.827Z,96131.00
2018-06-27T02:22:48.848Z,96130.00
2018-06-27T02:23:20.881Z,96131.00
2018-06-27T02:23:52.898Z,96131.00
2018-06-27T02:24:24.912Z,96128.00
2018-06-27T02:24:56.929Z,96131.00
2018-06-27T02:25:28.959Z,96127.00
2018-06-27T02:26:00.983Z,96131.00
2018-06-27T02:26:33.010Z,96125.00
2018-06-27T02:27:05.023Z,96126.00
2018-06-27T02:27:37.229Z,96122.00
2018-06-27T02:28:09.126Z,96124.00
2018-06-27T02:28:41.139Z,96121.00
2018-06-27T02:29:13.141Z,96128.00
2018-06-27T02:29:45.206Z,96127.00
2018-06-27T02:30:17.240Z,96129.00
2018-06-27T02:30:49.269Z,96129.00
2018-06-27T02:31:21.277Z,96134.00
2018-06-27T02:31:53.295Z,96130.00
2018-06-27T02:32:25.316Z,96131.00
2018-06-27T02:32:57.343Z,96128.00
2018-06-27T02:33:29.373Z,96130.00
2018-06-27T02:34:01.397Z,96134.00
2018-06-27T02:34:33.434Z,96128.00
2018-06-27T02:35:05.479Z,96131.00
2018-06-27T02:35:37.503Z,96133.00
2018-06-27T02:36:09.524Z,96132.00
2018-06-27T02:36:41.525Z,96135.00
2018-06-27T02:37:13.535Z,96136.00
2018-06-27T02:37:45.557Z,96137.00
2018-06-27T02:38:17.587Z,96129.00
2018-06-27T02:38:49.616Z,96132.00
2018-06-27T02:39:21.631Z,96133.00
2018-06-27T02:39:53.706Z,96133.00
2018-06-27T02:40:25.742Z,96135.00
2018-06-27T02:40:57.751Z,96134.00
2018-06-27T02:41:29.786Z,96138.00
2018-06-27T02:42:01.812Z,96138.00
2018-06-27T02:42:33.844Z,96133.00
2018-06-27T02:43:05.880Z,96133.00
2018-06-27T02:43:37.905Z,96137.00
2018-06-27T02:44:09.920Z,96133.00
2018-06-27T02:44:41.941Z,96136.00
2018-06-27T02:45:13.990Z,96131.00
2018-06-27T02:45:46.022Z,96134.00
2018-06-27T02:46:18.065Z,96136.00
2018-06-27T02:46:50.062Z,96137.00
2018-06-27T02:47:22.081Z,96133.00
2018-06-27T02:47:54.103Z,96130.00
2018-06-27T02:48:26.120Z,96134.00
2018-06-27T02:48:58.155Z,96134.00
2018-06-27T02:49:30.172Z,96134.00
2018-06-27T02:50:02.189Z,96131.00
2018-06-27T02:50:34.202Z,96131.00
2018-06-27T02:51:06.231Z,96128.00
2018-06-27T02:51:38.254Z,96129.00
2018-06-27T02:52:10.278Z,96127.00
2018-06-27T02:52:42.284Z,96127.00
2018-06-27T02:53:14.316Z,96132.00
2018-06-27T02:53:46.324Z,96129.00
2018-06-27T02:54:18.343Z,96125.00
2018-06-27T02:54:50.352Z,96124.00
2018-06-27T02:55:22.363Z,96125.00
2018-06-27T02:55:54.394Z,96128.00
2018-06-27T02:56:26.430Z,96132.00
2018-06-27T02:56:58.447Z,96127.00
2018-06-27T02:57:30.456Z,96127.00
2018-06-27T02:58:02.471Z,96127.00
2018-06-27T02:58:34.494Z,96130.00
2018-06-27T02:59:06.494Z,96131.00
2018-06-27T02:59:38.501Z,96127.00
2018-06-27T03:00:10.568Z,96127.00
2018-06-27T03:00:42.580Z,96133.00
2018-06-27T03:01:14.587Z,96132.00
2018-06-27T03:01:46.598Z,96131.00
2018-06-27T03:02:18.620Z,96132.00
2018-06-27T03:02:50.641Z,96133.00
2018-06-27T03:03:22.658Z,96127.00
2018-06-27T03:03:54.663Z,96128.00
2018-06-27T03:04:26.682Z,96130.00
2018-06-27T03:04:58.695Z,96128.00
2018-06-27T03:05:30.755Z,96132.00
2018-06-27T03:06:02.774Z,96129.00
2018-06-27T03:06:34.789Z,96130.00
2018-06-27T03:07:06.794Z,96129.00
2018-06-27T03:07:38.835Z,96130.00
2018-06-27T03:08:10.893Z,96129.00
2018-06-27T03:08:42.908Z,96130.00
2018-06-27T03:09:14.927Z,96125.00
2018-06-27T03:09:46.939Z,96130.00
2018-06-27T03:10:18.951Z,96130.00
2018-06-27T03:10:50.981Z,96133.00
2018-06-27T03:11:22.994Z,96133.00
2018-06-27T03:11:55.018Z,96141.00
2018-06-27T03:12:27.022Z,96132.00
2018-06-27T03:12:59.023Z,96132.00
2018-06-27T03:13:31.088Z,96132.00
2018-06-27T03:14:03.107Z,96130.00
2018-06-27T03:14:35.127Z,96130.00
2018-06-27T03:15:07.138Z,96129.00
2018-06-27T03:15:39.159Z,96132.00
2018-06-27T03:16:11.191Z,96132.00
2018-06-27T03:16:43.205Z,96136.00
2018-06-27T03:17:15.236Z,96129.00
2018-06-27T03:17:47.262Z,96135.00
2018-06-27T03:18:19.295Z,96131.00
2018-06-27T03:18:51.307Z,96130.00
2018-06-27T03:19:23.338Z,96131.00
2018-06-27T03:19:55.335Z,96132.00
2018-06-27T03:20:27.374Z,96129.00
2018-06-27T03:20:59.359Z,96128.00
2018-06-27T03:21:31.392Z,96128.00
2018-06-27T03:22:03.412Z,96123.00
2018-06-27T03:22:35.431Z,96125.00
2018-06-27T03:23:07.446Z,96122.00
2018-06-27T03:23:39.469Z,96124.00
2018-06-27T03:24:11.510Z,96122.00
2018-06-27T03:24:43.540Z,96121.00
2018-06-27T03:25:15.613Z,96122.00
2018-06-27T03:25:47.614Z,96123.00
2018-06-27T03:26:19.627Z,96123.00
2018-06-27T03:26:51.663Z,96119.00
2018-06-27T03:27:23.681Z,96122.00
2018-06-27T03:27:55.712Z,96122.00
2018-06-27T03:28:27.738Z,96124.00
2018-06-27T03:28:59.746Z,96121.00
2018-06-27T03:29:31.764Z,96119.00
2018-06-27T03:30:03.763Z,96122.00
2018-06-27T03:30:35.790Z,96119.00
2018-06-27T03:31:07.808Z,96122.00
2018-06-27T03:31:39.848Z,96124.00
2018-06-27T03:32:11.855Z,96118.00
2018-06-27T03:32:43.940Z,96118.00
2018-06-27T03:33:15.958Z,96126.00
2018-06-27T03:33:47.994Z,96120.00
2018-06-27T03:34:19.994Z,96119.00
2018-06-27T03:34:52.029Z,96119.00
2018-06-27T03:35:24.034Z,96123.00
2018-06-27T03:35:56.045Z,96116.00
2018-06-27T03:36:28.100Z,96122.00
2018-06-27T03:37:00.150Z,96122.00
2018-06-27T03:37:32.144Z,96120.00
2018-06-27T03:38:04.158Z,96121.00
2018-06-27T03:38:36.160Z,96125.00
2018-06-27T03:39:08.169Z,96123.00
2018-06-27T03:39:40.194Z,96124.00
2018-06-27T03:40:12.219Z,96118.00
2018-06-27T03:40:44.262Z,96127.00
2018-06-27T03:41:16.281Z,96120.00
2018-06-27T03:41:48.702Z,96123.00
2018-06-27T03:42:20.730Z,96124.00
2018-06-27T03:42:52.753Z,96124.00
2018-06-27T03:43:24.765Z,96121.00
2018-06-27T03:43:56.783Z,96125.00
2018-06-27T03:44:28.834Z,96127.00
2018-06-27T03:45:00.920Z,96125.00
2018-06-27T03:45:32.937Z,96129.00
2018-06-27T03:46:04.938Z,96125.00
2018-06-27T03:46:36.968Z,96127.00
2018-06-27T03:47:08.988Z,96129.00
2018-06-27T03:47:41.027Z,96126.00
2018-06-27T03:48:13.039Z,96125.00
2018-06-27T03:48:45.074Z,96120.00
2018-06-27T03:49:17.091Z,96120.00
2018-06-27T03:49:49.099Z,96122.00
2018-06-27T03:50:21.126Z,96121.00
2018-06-27T03:50:53.178Z,96122.00
2018-06-27T03:51:25.200Z,96123.00
2018-06-27T03:51:57.206Z,96124.00
2018-06-27T03:52:29.223Z,96124.00
2018-06-27T03:53:01.274Z,96128.00
2018-06-27T03:53:33.279Z,96128.00
2018-06-27T03:54:05.295Z,96126.00
2018-06-27T03:54:37.307Z,96130.00
2018-06-27T03:55:09.344Z,96128.00
2018-06-27T03:55:41.754Z,96128.00
2018-06-27T03:56:13.657Z,96127.00
2018-06-27T03:56:45.738Z,96130.00
2018-06-27T03:57:17.779Z,96131.00
2018-06-27T03:57:49.821Z,96129.00
2018-06-27T03:58:21.858Z,96129.00
2018-06-27T03:58:53.877Z,96132.00
2018-06-27T03:59:25.914Z,96131.00
2018-06-27T03:59:57.930Z,96134.00
2018-06-27T04:00:30.000Z,96133.00
2018-06-27T04:01:02.256Z,96134.00
2018-06-27T04:01:34.273Z,96134.00
2018-06-27T04:02:06.291Z,96135.00
2018-06-27T04:02:38.337Z,96138.00
2018-06-27T04:03:10.321Z,96142.00
2018-06-27T04:03:42.338Z,96138.00
2018-06-27T04:04:14.347Z,96144.00
2018-06-27T04:04:46.434Z,96142.00
2018-06-27T04:05:18.826Z,96142.00
2018-06-27T04:05:50.712Z,96138.00
2018-06-27T04:06:22.790Z,96146.00
2018-06-27T04:06:54.811Z,96144.00
2018-06-27T04:07:26.840Z,96145.00
2018-06-27T04:07:58.847Z,96150.00
2018-06-27T04:08:30.879Z,96149.00
2018-06-27T04:09:02.902Z,96143.00
2018-06-27T04:09:34.929Z,96149.00
2018-06-27T04:10:06.942Z,96147.00
2018-06-27T04:10:38.976Z,96145.00
2018-06-27T04:11:10.999Z,96145.00
2018-06-27T04:11:43.052Z,96142.00
2018-06-27T04:12:15.061Z,96144.00
2018-06-27T04:12:47.204Z,96149.00
2018-06-27T04:13:19.195Z,96151.00
2018-06-27T04:13:51.138Z,96154.00
2018-06-27T04:14:23.155Z,96147.00
2018-06-27T04:14:55.202Z,96151.00
2018-06-27T04:15:27.230Z,96153.00
2018-06-27T04:15:59.239Z,96153.00
2018-06-27T04:16:31.267Z,96151.00
2018-06-27T04:17:03.262Z,96152.00
2018-06-27T04:17:35.275Z,96150.00
2018-06-27T04:18:07.317Z,96152.00
2018-06-27T04:18:39.322Z,96148.00
2018-06-27T04:19:11.336Z,96150.00
2018-06-27T04:19:43.346Z,96152.00
2018-06-27T04:20:15.370Z,96150.00
2018-06-27T04:20:47.388Z,96153.00
2018-06-27T04:21:19.422Z,96145.00
2018-06-27T04:21:51.431Z,96149.00
2018-06-27T04:22:23.473Z,96149.00
2018-06-27T04:22:55.494Z,96147.00
2018-06-27T04:23:27.523Z,96145.00
2018-06-27T04:23:59.570Z,96150.00
2018-06-27T04:24:31.623Z,96151.00
2018-06-27T04:25:03.638Z,96146.00
2018-06-27T04:25:35.645Z,96153.00
2018-06-27T04:26:07.673Z,96156.00
2018-06-27T04:26:39.690Z,96156.00
2018-06-27T04:27:11.707Z,96153.00
2018-06-27T04:27:43.714Z,96152.00
2018-06-27T04:28:15.718Z,96158.00
2018-06-27T04:28:47.777Z,96155.00
2018-06-27T04:29:19.774Z,96152.00
2018-06-27T04:29:51.803Z,96153.00
2018-06-27T04:30:23.824Z,96153.00
2018-06-27T04:30:55.842Z,96155.00
2018-06-27T04:31:27.867Z,96155.00
2018-06-27T04:31:59.918Z,96153.00
2018-06-27T04:32:31.931Z,96145.00
2018-06-27T04:33:03.953Z,96148.00
2018-06-27T04:33:35.986Z,96151.00
2018-06-27T04:34:07.991Z,96153.00
2018-06-27T04:34:40.014Z,96145.00
2018-06-27T04:35:12.043Z,96144.00
2018-06-27T04:35:44.091Z,96147.00
2018-06-27T04:36:16.124Z,96147.00
2018-06-27T04:36:48.091Z,96146.00
2018-06-27T04:37:20.096Z,96148.00
2018-06-27T04:37:52.138Z,96145.00
2018-06-27T04:38:24.150Z,96147.00
2018-06-27T04:38:56.194Z,96150.00
2018-06-27T04:39:28.213Z,96149.00
2018-06-27T04:40:00.234Z,96153.00
2018-06-27T04:40:32.249Z,96144.00
2018-06-27T04:41:04.465Z,96150.00
2018-06-27T04:41:36.502Z,96147.00
2018-06-27T04:42:08.542Z,96142.00
2018-06-27T04:42:40.591Z,96153.00
2018-06-27T04:43:13.027Z,96147.00
2018-06-27T04:43:44.891Z,96149.00
2018-06-27T04:44:16.906Z,96145.00
2018-06-27T04:44:48.929Z,96150.00
2018-06-27T04:45:20.941Z,96148.00
2018-06-27T04:45:52.965Z,96144.00
2018-06-27T04:46:24.976Z,96151.00
2018-06-27T04:46:56.989Z,96146.00
2018-06-27T04:47:28.997Z,96148.00
2018-06-27T04:48:01.040Z,96148.00
2018-06-27T04:48:33.020Z,96151.00
2018-06-27T04:49:05.044Z,96150.00
2018-06-27T04:49:37.171Z,96149.00
2018-06-27T04:50:09.091Z,96147.00
2018-06-27T04:50:41.122Z,96147.00
2018-06-27T04:51:13.155Z,96144.00
2018-06-27T04:51:45.195Z,96142.00
2018-06-27T04:52:17.222Z,96144.00
2018-06-27T04:52:49.271Z,96141.00
2018-06-27T04:53:21.293Z,96140.00
2018-06-27T04:53:53.328Z,96143.00
2018-06-27T04:54:25.358Z,96139.00
2018-06-27T04:54:57.429Z,96143.00
2018-06-27T04:55:29.372Z,96141.00
2018-06-27T04:56:01.409Z,96144.00
2018-06-27T04:56:33.412Z,96140.00
2018-06-27T04:57:05.433Z,96138.00
2018-06-27T04:57:37.448Z,96141.00
2018-06-27T04:58:09.486Z,96143.00
2018-06-27T04:58:41.519Z,96142.00
2018-06-27T04:59:13.530Z,96140.00
2018-06-27T04:59:45.540Z,96141.00
2018-06-27T05:00:17.584Z,96136.00
2018-06-27T05:00:49.595Z,96143.00
2018-06-27T05:01:21.643Z,96139.00
2018-06-27T05:01:53.666Z,96136.00
2018-06-27T05:02:25.687Z,96137.00
2018-06-27T05:02:57.730Z,96136.00
2018-06-27T05:03:29.740Z,96140.00
2018-06-27T05:04:01.776Z,96137.00
2018-06-27T05:04:33.794Z,96138.00
2018-06-27T05:05:05.807Z,96138.00
2018-06-27T05:05:37.852Z,96136.00
2018-06-27T05:06:09.868Z,96140.00
2018-06-27T05:06:41.883Z,96137.00
2018-06-27T05:07:13.896Z,96134.00
2018-06-27T05:07:45.939Z,96139.00
2018-06-27T05:08:17.951Z,96145.00
2018-06-27T05:08:49.966Z,96141.00
2018-06-27T05:09:21.978Z,96138.00
2018-06-27T05:09:53.997Z,96136.00
2018-06-27T05:10:26.011Z,96139.00
2018-06-27T05:10:58.027Z,96143.00
2018-06-27T05:11:30.041Z,96141.00
2018-06-27T05:12:02.075Z,96140.00
2018-06-27T05:12:34.086Z,96144.00
2018-06-27T05:13:06.093Z,96143.00
2018-06-27T05:13:38.093Z,96147.00
2018-06-27T05:14:10.110Z,96145.00
2018-06-27T05:14:42.127Z,96147.00
2018-06-27T05:15:14.143Z,96148.00
2018-06-27T05:15:46.159Z,96149.00
2018-06-27T05:16:18.184Z,96146.00
2018-06-27T05:16:50.228Z,96146.00
2018-06-27T05:17:22.237Z,96151.00
2018-06-27T05:17:54.276Z,96146.00
2018-06-27T05:18:26.293Z,96141.00
2018-06-27T05:18:58.310Z,96143.00
2018-06-27T05:19:30.373Z,96138.00
2018-06-27T05:20:02.367Z,96147.00
2018-06-27T05:20:34.371Z,96145.00
2018-06-27T05:21:06.422Z,96149.00
2018-06-27T05:21:38.439Z,96150.00
2018-06-27T05:22:10.487Z,96147.00
2018-06-27T05:22:42.559Z,96147.00
2018-06-27T05:23:14.587Z,96150.00
2018-06-27T05:23:46.604Z,96151.00
2018-06-27T05:24:18.619Z,96152.00
2018-06-27T05:24:50.666Z,96155.00
2018-06-27T05:25:22.738Z,96149.00
2018-06-27T05:25:54.743Z,96152.00
2018-06-27T05:26:26.798Z,96150.00
2018-06-27T05:26:58.813Z,96154.00
2018-06-27T05:27:30.979Z,96153.00
2018-06-27T05:28:02.844Z,96152.00
2018-06-27T05:28:34.867Z,96154.00
2018-06-27T05:29:06.877Z,96157.00
2018-06-27T05:29:38.887Z,96156.00
2018-06-27T05:30:10.906Z,96159.00
2018-06-27T05:30:42.917Z,96159.00
2018-06-27T05:31:14.931Z,96155.00
2018-06-27T05:31:46.970Z,96161.00
2018-06-27T05:32:18.998Z,96157.00
2018-06-27T05:32:51.024Z,96156.00
2018-06-27T05:33:23.022Z,96156.00
2018-06-27T05:33:55.099Z,96160.00
2018-06-27T05:34:27.098Z,96157.00
2018-06-27T05:34:59.111Z,96158.00
2018-06-27T05:35:31.127Z,96155.00
2018-06-27T05:36:03.162Z,96157.00
2018-06-27T05:36:35.198Z,96153.00
2018-06-27T05:37:07.216Z,96154.00
2018-06-27T05:37:39.222Z,96156.00
2018-06-27T05:38:11.311Z,96156.00
2018-06-27T05:38:43.437Z,96161.00
2018-06-27T05:39:15.451Z,96159.00
2018-06-27T05:39:47.509Z,96159.00
2018-06-27T05:40:19.522Z,96161.00
2018-06-27T05:40:51.538Z,96162.00
2018-06-27T05:41:23.556Z,96161.00
2018-06-27T05:41:55.580Z,96159.00
2018-06-27T05:42:27.624Z,96163.00
2018-06-27T05:42:59.677Z,96164.00
2018-06-27T05:43:31.690Z,96166.00
2018-06-27T05:44:03.722Z,96166.00
2018-06-27T05:44:35.811Z,96170.00
2018-06-27T05:45:07.834Z,96168.00
2018-06-27T05:45:39.839Z,96169.00
2018-06-27T05:46:11.861Z,96168.00
2018-06-27T05:46:43.888Z,96167.00
2018-06-27T05:47:15.927Z,96170.00
2018-06-27T05:47:47.934Z,96167.00
2018-06-27T05:48:19.967Z,96176.00
2018-06-27T05:48:51.981Z,96173.00
2018-06-27T05:49:24.016Z,96173.00
2018-06-27T05:49:56.047Z,96174.00
2018-06-27T05:50:28.122Z,96174.00
2018-06-27T05:51:00.151Z,96177.00
2018-06-27T05:51:32.213Z,96174.00
2018-06-27T05:52:04.168Z,96176.00
2018-06-27T05:52:36.213Z,96172.00
2018-06-27T05:53:08.202Z,96173.00
2018-06-27T05:53:40.242Z,96178.00
2018-06-27T05:54:12.259Z,96175.00
2018-06-27T05:54:44.308Z,96178.00
2018-06-27T05:55:16.320Z,96178.00
2018-06-27T05:55:48.343Z,96181.00
2018-06-27T05:56:20.355Z,96181.00
2018-06-27T05:56:52.369Z,96183.00
2018-06-27T05:57:24.384Z,96174.00
2018-06-27T05:57:56.416Z,96177.00
2018-06-27T05:58:28.454Z,96176.00
2018-06-27T05:59:00.477Z,96180.00
2018-06-27T05:59:32.503Z,96183.00
2018-06-27T06:00:04.530Z,96179.00
2018-06-27T06:00:36.555Z,96183.00
2018-06-27T06:01:08.565Z,96178.00
2018-06-27T06:01:40.583Z,96180.00
2018-06-27T06:02:12.615Z,96182.00
2018-06-27T06:02:44.693Z,96183.00
2018-06-27T06:03:16.709Z,96177.00
2018-06-27T06:03:48.731Z,96179.00
2018-06-27T06:04:20.901Z,96181.00
2018-06-27T06:04:52.949Z,96179.00
2018-06-27T06:05:25.053Z,96179.00
2018-06-27T06:05:57.063Z,96181.00
2018-06-27T06:06:29.090Z,96179.00
2018-06-27T06:07:01.126Z,96182.00
2018-06-27T06:07:33.140Z,96183.00
2018-06-27T06:08:05.154Z,96182.00
2018-06-27T06:08:37.301Z,96181.00
2018-06-27T06:09:09.288Z,96177.00
2018-06-27T06:09:41.306Z,96180.00
2018-06-27T06:10:13.316Z,96186.00
2018-06-27T06:10:45.346Z,96189.00
2018-06-27T06:11:17.439Z,96188.00
2018-06-27T06:11:49.404Z,96194.00
2018-06-27T06:12:21.390Z,96181.00
2018-06-27T06:12:53.408Z,96188.00
2018-06-27T06:13:25.418Z,96187.00
2018-06-27T06:13:57.429Z,96184.00
2018-06-27T06:14:29.451Z,96187.00
2018-06-27T06:15:01.456Z,96188.00
2018-06-27T06:15:33.535Z,96186.00
2018-06-27T06:16:05.558Z,96184.00